createdAt,value
2024-01-15T00:04:23.250Z,98350.40
2024-01-15T00:09:30.913Z,98337.91
2024-01-15T00:14:38.631Z,98322.72
2024-01-15T00:19:48.224Z,98306.49
2024-01-15T00:24:55.850Z,98305.30
2024-01-15T00:30:03.474Z,98295.12
2024-01-15T00:35:11.989Z,98285.39
2024-01-15T00:40:19.401Z,98269.72
2024-01-15T00:45:26.898Z,98260.46
2024-01-15T00:50:34.200Z,98254.20
2024-01-15T00:55:41.502Z,98241.41
2024-01-15T01:00:49.555Z,98227.79
2024-01-15T01:05:57.096Z,98219.11
2024-01-15T01:11:04.423Z,98217.85
2024-01-15T01:16:11.864Z,98217.29
2024-01-15T01:21:19.307Z,98214.48
2024-01-15T01:26:26.638Z,98209.05
2024-01-15T01:31:34.161Z,98205.92
2024-01-15T01:36:41.730Z,98205.20
2024-01-15T01:41:49.440Z,98202.79
2024-01-15T01:46:57.091Z,98195.15
2024-01-15T01:52:09.089Z,98186.75
2024-01-15T01:57:17.579Z,98179.35
2024-01-15T02:02:29.241Z,98180.55
2024-01-15T02:07:38.578Z,98189.39
2024-01-15T02:12:47.318Z,98191.80
2024-01-15T02:18:06.208Z,98185.73
2024-01-15T02:23:15.039Z,98185.95
2024-01-15T02:28:22.707Z,98182.63
2024-01-15T02:33:30.501Z,98172.28
2024-01-15T02:38:37.939Z,98162.40
2024-01-15T02:43:45.512Z,98153.35
2024-01-15T02:48:52.965Z,98146.65
2024-01-15T02:54:00.540Z,98148.25
2024-01-15T02:59:08.259Z,98142.75
2024-01-15T03:04:16.121Z,98126.67
2024-01-15T03:09:23.589Z,98121.15
2024-01-15T03:14:30.889Z,98116.76
2024-01-15T03:19:40.047Z,98104.88
2024-01-15T03:24:47.873Z,98099.02
2024-01-15T03:29:55.339Z,98095.00
2024-01-15T03:35:02.962Z,98092.36
2024-01-15T03:40:13.286Z,98092.84
2024-01-15T03:45:20.957Z,98079.71
2024-01-15T03:50:28.517Z,98080.48
2024-01-15T03:55:36.343Z,98080.91
2024-01-15T04:00:43.755Z,98074.77
2024-01-15T04:05:51.151Z,98068.21
2024-01-15T04:10:58.466Z,98067.93
2024-01-15T04:16:06.288Z,98065.04
2024-01-15T04:21:13.668Z,98057.43
2024-01-15T04:26:21.095Z,98039.25
2024-01-15T04:31:29.524Z,98040.82
2024-01-15T04:36:43.091Z,98037.84
2024-01-15T04:41:50.616Z,98023.48
2024-01-15T04:46:57.970Z,98019.70
2024-01-15T04:52:05.548Z,98015.02
2024-01-15T04:57:12.864Z,98025.41
2024-01-15T05:02:20.134Z,98015.67
2024-01-15T05:07:27.562Z,98014.27
2024-01-15T05:12:34.906Z,98013.10
2024-01-15T05:17:42.322Z,98018.81
2024-01-15T05:22:51.851Z,98027.13
2024-01-15T05:27:59.438Z,98029.80
2024-01-15T05:33:08.711Z,98029.40
2024-01-15T05:38:16.943Z,98039.35
2024-01-15T05:43:24.335Z,98033.18
2024-01-15T05:48:31.803Z,98040.15
2024-01-15T05:53:41.670Z,98035.23
2024-01-15T05:58:49.338Z,98042.36
2024-01-15T06:03:56.810Z,98042.25
2024-01-15T06:09:06.768Z,98046.56
2024-01-15T06:14:14.297Z,98047.13
2024-01-15T06:19:21.825Z,98050.89
2024-01-15T06:24:29.340Z,98052.98
2024-01-15T06:29:39.738Z,98049.51
2024-01-15T06:34:47.032Z,98055.33
2024-01-15T06:39:54.621Z,98064.71
2024-01-15T06:45:02.220Z,98058.67
2024-01-15T06:50:10.468Z,98076.17
2024-01-15T06:55:17.873Z,98075.97
2024-01-15T07:00:26.183Z,98080.67
2024-01-15T07:05:33.761Z,98086.88
2024-01-15T07:10:41.200Z,98085.23
2024-01-15T07:15:48.566Z,98093.49
2024-01-15T07:20:56.015Z,98090.27
2024-01-15T07:26:03.446Z,98090.62
2024-01-15T07:31:11.123Z,98104.42
2024-01-15T07:36:20.793Z,98101.64
2024-01-15T07:41:28.246Z,98101.12
2024-01-15T07:46:35.599Z,98095.95
2024-01-15T07:51:44.973Z,98101.13
2024-01-15T07:57:00.413Z,98087.63
2024-01-15T08:02:07.759Z,98072.45
2024-01-15T08:07:15.135Z,98074.20
2024-01-15T08:12:23.862Z,98068.39
2024-01-15T08:17:31.374Z,98066.67
2024-01-15T08:22:38.652Z,98063.59
2024-01-15T08:27:46.153Z,98066.67
2024-01-15T08:32:53.532Z,98063.04
2024-01-15T08:38:00.944Z,98063.44
2024-01-15T08:43:08.974Z,98063.23
2024-01-15T08:48:16.508Z,98080.30
2024-01-15T08:53:23.767Z,98073.27
2024-01-15T08:58:31.121Z,98067.70
2024-01-15T09:03:38.590Z,98074.91
2024-01-15T09:08:47.374Z,98076.48
2024-01-15T09:13:54.627Z,98074.54
2024-01-15T09:19:02.216Z,98068.65
2024-01-15T09:24:09.921Z,98070.02
2024-01-15T09:29:18.957Z,98073.00
2024-01-15T09:34:26.483Z,98066.55
2024-01-15T09:39:34.670Z,98067.53
2024-01-15T09:44:42.634Z,98069.42
2024-01-15T09:49:50.152Z,98063.63
2024-01-15T09:54:57.991Z,98064.06
2024-01-15T10:00:12.342Z,98067.78
2024-01-15T10:05:20.185Z,98063.68
2024-01-15T10:10:27.567Z,98057.80
2024-01-15T10:15:39.347Z,98054.84
2024-01-15T10:20:47.180Z,98059.80
2024-01-15T10:25:54.551Z,98050.52
2024-01-15T10:31:03.005Z,98051.73
2024-01-15T10:36:13.664Z,98042.88
2024-01-15T10:41:21.229Z,98037.13
2024-01-15T10:46:29.854Z,98043.90
2024-01-15T10:51:37.293Z,98038.42
2024-01-15T10:56:46.276Z,98029.85
2024-01-15T11:01:55.953Z,98027.30
2024-01-15T11:07:05.177Z,98034.42
2024-01-15T11:12:17.329Z,98035.64
2024-01-15T11:17:22.892Z,98035.14
2024-01-15T11:22:52.816Z,98039.42
2024-01-15T11:27:59.777Z,98042.02
2024-01-15T11:33:08.916Z,98054.33
2024-01-15T11:38:31.195Z,98046.34
2024-01-15T11:43:39.176Z,98044.35
2024-01-15T11:48:48.381Z,98032.89
2024-01-15T11:54:04.628Z,98033.02
2024-01-15T11:59:11.993Z,98028.61
2024-01-15T12:04:20.982Z,98031.50
2024-01-15T12:09:29.017Z,98038.37
2024-01-15T12:14:36.793Z,98042.02
2024-01-15T12:19:43.718Z,98037.92
2024-01-15T12:24:50.967Z,98045.52
2024-01-15T12:29:57.866Z,98044.45
2024-01-15T12:35:06.163Z,98037.38
2024-01-15T12:40:15.945Z,98040.23
2024-01-15T12:45:23.578Z,98038.15
2024-01-15T12:50:30.578Z,98041.27
2024-01-15T12:55:40.224Z,98044.79
2024-01-15T13:00:48.238Z,98041.17
2024-01-15T13:05:58.068Z,98046.61
2024-01-15T13:11:05.577Z,98031.14
2024-01-15T13:16:13.037Z,98026.42
2024-01-15T13:21:20.520Z,98032.24
2024-01-15T13:26:27.939Z,98032.15
2024-01-15T13:31:35.765Z,98021.69
2024-01-15T13:36:51.343Z,98025.07
2024-01-15T13:41:58.727Z,98018.67
2024-01-15T13:47:06.731Z,98028.58
2024-01-15T13:52:14.953Z,98033.29
2024-01-15T13:57:23.310Z,98039.63
2024-01-15T14:02:30.592Z,98035.39
2024-01-15T14:07:38.133Z,98054.30
2024-01-15T14:12:45.508Z,98056.21
2024-01-15T14:17:54.065Z,98055.34
2024-01-15T14:23:01.455Z,98056.77
2024-01-15T14:28:09.673Z,98059.33
2024-01-15T14:33:17.246Z,98060.69
2024-01-15T14:38:24.914Z,98052.55
2024-01-15T14:43:32.254Z,98062.47
2024-01-15T14:48:39.843Z,98057.78
2024-01-15T14:53:47.192Z,98074.05
2024-01-15T14:58:54.663Z,98069.63
2024-01-15T15:04:02.309Z,98062.69
2024-01-15T15:09:13.572Z,98064.56
2024-01-15T15:14:21.090Z,98067.92
2024-01-15T15:19:28.620Z,98085.70
2024-01-15T15:24:35.984Z,98081.95
2024-01-15T15:29:43.311Z,98089.47
2024-01-15T15:34:50.948Z,98095.75
2024-01-15T15:39:59.710Z,98109.64
2024-01-15T15:45:08.384Z,98109.30
2024-01-15T15:50:15.949Z,98122.11
2024-01-15T15:55:25.001Z,98130.34
2024-01-15T16:00:32.657Z,98137.94
2024-01-15T16:05:45.870Z,98134.42
2024-01-15T16:11:00.380Z,98141.79
2024-01-15T16:23:09.831Z,98148.09
2024-01-15T16:23:37.335Z,98155.08
2024-01-15T16:32:21.492Z,98153.30
2024-01-15T16:37:30.757Z,98158.66
2024-01-15T16:42:38.458Z,98159.28
2024-01-15T16:47:46.011Z,98169.56
2024-01-15T16:52:53.488Z,98162.56
2024-01-15T16:58:01.568Z,98166.08
2024-01-15T17:03:09.219Z,98169.49
2024-01-15T17:08:16.705Z,98186.97
2024-01-15T17:13:24.200Z,98184.95
2024-01-15T17:18:31.793Z,98191.02
2024-01-15T17:23:39.358Z,98195.95
2024-01-15T17:28:46.782Z,98195.27
2024-01-15T17:33:55.197Z,98203.33
2024-01-15T17:39:06.733Z,98204.46
2024-01-15T17:44:14.351Z,98202.85
2024-01-15T17:49:21.859Z,98219.67
2024-01-15T17:54:30.159Z,98215.63
2024-01-15T17:59:37.780Z,98219.77
2024-01-15T18:04:45.199Z,98224.27
2024-01-15T18:09:52.630Z,98227.73
2024-01-15T18:15:00.070Z,98230.48
2024-01-15T18:20:10.783Z,98242.38
2024-01-15T18:25:18.680Z,98249.02
2024-01-15T18:30:27.284Z,98262.95
2024-01-15T18:35:35.080Z,98257.65
2024-01-15T18:40:42.834Z,98266.07
2024-01-15T18:45:50.727Z,98266.55
2024-01-15T18:50:58.281Z,98264.64
2024-01-15T18:56:06.967Z,98259.66
2024-01-15T19:01:16.065Z,98266.12
2024-01-15T19:06:23.604Z,98273.93
2024-01-15T19:11:31.259Z,98274.23
2024-01-15T19:16:39.230Z,98279.52
2024-01-15T19:21:48.682Z,98283.12
2024-01-15T19:26:58.592Z,98292.31
2024-01-15T19:32:06.642Z,98294.46
2024-01-15T19:37:14.166Z,98302.14
2024-01-15T19:42:21.451Z,98306.04
2024-01-15T19:47:29.096Z,98312.95
2024-01-15T19:52:37.909Z,98315.57
2024-01-15T19:57:46.354Z,98316.91
2024-01-15T20:02:53.920Z,98331.09
2024-01-15T20:08:05.321Z,98339.00
2024-01-15T20:13:12.827Z,98353.73
2024-01-15T20:18:20.481Z,98358.00
2024-01-15T20:23:28.148Z,98362.31
2024-01-15T20:28:35.689Z,98367.64
2024-01-15T20:33:43.028Z,98377.17
2024-01-15T20:38:50.445Z,98381.52
2024-01-15T20:44:01.472Z,98382.26
2024-01-15T20:49:08.992Z,98395.52
2024-01-15T20:54:16.341Z,98386.59
2024-01-15T20:59:23.671Z,98390.98
2024-01-15T21:04:31.022Z,98397.75
2024-01-15T21:09:40.077Z,98401.94
2024-01-15T21:14:47.664Z,98407.13
2024-01-15T21:19:57.254Z,98405.95
2024-01-15T21:25:05.873Z,98418.96
2024-01-15T21:30:15.118Z,98431.45
2024-01-15T21:35:22.793Z,98438.00
2024-01-15T21:40:30.174Z,98450.00
2024-01-15T21:45:39.068Z,98449.19
2024-01-15T21:50:46.793Z,98464.27
2024-01-15T21:55:54.266Z,98465.44
2024-01-15T22:01:01.988Z,98463.42
2024-01-15T22:06:11.822Z,98467.98
2024-01-15T22:11:19.175Z,98471.14
2024-01-15T22:16:26.586Z,98480.75
2024-01-15T22:21:34.055Z,98483.11
2024-01-15T22:26:42.151Z,98486.80
2024-01-15T22:31:49.735Z,98494.20
2024-01-15T22:36:57.307Z,98497.73
2024-01-15T22:42:04.855Z,98500.80
2024-01-15T22:47:12.305Z,98507.71
2024-01-15T22:52:19.886Z,98508.88
2024-01-15T22:57:27.464Z,98511.44
2024-01-15T23:02:35.036Z,98514.84
2024-01-15T23:07:42.984Z,98515.91
2024-01-15T23:12:50.679Z,98516.09
2024-01-15T23:17:59.785Z,98520.14
2024-01-15T23:23:08.115Z,98527.57
2024-01-15T23:28:15.659Z,98528.61
2024-01-15T23:33:23.290Z,98537.09
2024-01-15T23:38:30.895Z,98547.61
2024-01-15T23:43:40.645Z,98549.34
2024-01-15T23:48:48.527Z,98547.52
2024-01-15T23:53:56.058Z,98543.62
2024-01-15T23:59:04.155Z,98552.08
